ADDS METAR Data INFO
IDs: Format: Raw Decoded Include TAF

Data at: 0601 UTC 25 Jun 2018

KCNW 250355Z 16013G20KT 10SM SKC 29/22 A2988
KCNW 250255Z 15007G15KT 10SM SKC 30/22 A2988
KCNW 250155Z 15010G18KT 10SM SKC 32/20 A2985
KCNW 250055Z 15015G22KT 10SM SKC 34/20 A2981
KCNW 242355Z 16012G25KT 10SM SKC 35/19 A2980
KCNW 242255Z 16015G25KT 10SM SCT065 37/19 A2981
KCNW 242155Z 17020G25KT 10SM SCT055 37/17 A2982
KCNW 242055Z 18015G28KT 10SM SCT055 37/18 A2982
KCNW 241955Z 17015G22KT 10SM SCT050 36/19 A2983
KCNW 241855Z 18013G24KT 10SM SCT050 36/19 A2985
KCNW 241755Z 16012G23KT 10SM SCT050 35/18 A2987
KCNW 241655Z 20012G20KT 10SM SCT045 34/18 A2988
KCNW 241555Z 19015G22KT 10SM SKC 32/20 A2987
KCNW 241455Z 18011G19KT 10SM SCT060 29/21 A2988
KCNW 241255Z 18015G23KT 10SM OVC022 27/22 A2984
KCNW 241155Z 19012G21KT 10SM OVC019 27/23 A2981
KCNW 240355Z 17012G17KT 10SM SKC 30/22 A2979
KCNW 240255Z 16010G18KT 10SM SKC 30/22 A2977
KCNW 240155Z 15013G18KT 10SM SKC 32/21 A2974
KCNW 240055Z 17009G20KT 10SM SKC 34/20 A2974
KCNW 232355Z 17012G18KT 10SM SKC 35/19 A2974
KCNW 232255Z 18012G20KT 10SM SKC 36/18 A2974
KCNW 232155Z 16014G23KT 10SM SKC 36/18 A2975
KCNW 232055Z 17015G23KT 10SM SKC 37/19 A2978
KCNW 231955Z 16013G18KT 10SM SKC 36/18 A2980
KCNW 231855Z 17007G15KT 10SM SKC 35/19 A2982